Vaaraa aiheuttavia sääilmiöitä ei ole odotettavissa.    Ei varoituksia

Webkamera Lisätietoa Webcam


Yksityisiä sääasemia lähellä:

Sääasema Juupajoki

Sääasema Orivesi

Sääasema Muurame

Sääasema Jyväskylä

Sääasema Vihtavuori


Löydät sääaseman tiedot myös:

Finland Weather Exchange

European Weather Network

Weather Underground

AWEKAS

Windy.com



Säätiedot lähimmiltä METAR asemilta

   
EFHA - Halli (Fin-Afb), Finland
Etäisyys asemalta: Kaakko 25 km
Päivitetty: 03.07.2020 16:50
Selkeää  
Selkeää  
   Tuuli: Länsilounas 4.1 m/s
Tuuli: Länsilounas 4.1 m/s
Lämpötila: 15°C
Kastepiste: 8°C
Kosteus: 63%
Ilmanpaine: 1006 hPa
Näkyvyys: Enemmän kuin 10 km
Pilvitiedot: Selkeää
EFHA 031350Z AUTO 25008KT CAVOK 15/08 Q1006
EFJY - Jyvaskyla (Mil/Civ), Finland
Etäisyys asemalta: Koillinen 75 km
Päivitetty: 03.07.2020 16:50
Selkeää  
Selkeää  
   Tuuli: Lounas 5.7 m/s
Tuuli: Lounas 5.7 m/s
Lämpötila: 18°C
Kastepiste: 4°C
Kosteus: 40%
Ilmanpaine: 1005 hPa
Näkyvyys: Enemmän kuin 10 km
Pilvitiedot: Selkeää
EFJY 031350Z AUTO 23011KT 180V280 CAVOK 18/04 Q1005
EFTP - Tampere/Pirkkala, Finland
Etäisyys asemalta: Lounas 81 km
Päivitetty: 03.07.2020 16:50
Selkeää  
Selkeää  
   Tuuli: Länsilounas 4.6 m/s
Tuuli: Länsilounas 4.6 m/s
Lämpötila: 16°C
Kastepiste: 10°C
Kosteus: 68%
Ilmanpaine: 1007 hPa
Näkyvyys: Enemmän kuin 10 km
Pilvitiedot: Selkeää
EFTP 031350Z AUTO 24009KT 210V270 CAVOK 16/10 Q1007
EFSI - Seinajoki-Ilmajoki, Finland
Etäisyys asemalta: Luode 114 km
Päivitetty: 03.07.2020 16:50
Puolipilvistä  
Puolipilvistä  
   Tuuli: Länsilounas 4.6 m/s
Tuuli: Länsilounas 4.6 m/s
Lämpötila: 15°C
Kastepiste: 6°C
Kosteus: 55%
Ilmanpaine: 1004 hPa
Pilvisyys: Puolipilvistä
Näkyvyys: Enemmän kuin 10 km
Pilvitiedot: Vähäistä pilvisyyttä 1128 m,
Puolipilvistä 1433 m
EFSI 031350Z AUTO 24009KT 170V300 9999 FEW037 SCT047 15/06 Q1004
EFMI - Mikkeli, Finland
Etäisyys asemalta: Itäkaakko 147 km
Päivitetty: 03.07.2020 16:50
Selkeää  
Selkeää  
   Tuuli: Länsilounas 4.1 m/s
Tuuli: Länsilounas 4.1 m/s
Näkyvyys: Enemmän kuin 10 km
Pilvitiedot: Selkeää
EFMI 031350Z AUTO 24008KT 170V300 CAVOK ///// Q////
EFPO - Pori (Mil/Civ), Finland
Etäisyys asemalta: Länsilounas 154 km
Päivitetty: 03.07.2020 16:50
Puolipilvistä  
Puolipilvistä  
   Tuuli: Länsilounas 4.1 m/s
Tuuli: Länsilounas 4.1 m/s
Lämpötila: 17°C
Kastepiste: 10°C
Kosteus: 64%
Ilmanpaine: 1006 hPa
Pilvisyys: Puolipilvistä
Näkyvyys: Enemmän kuin 10 km
Pilvitiedot: Puolipilvistä 823 m
EFPO 031350Z AUTO 24008KT 200V310 9999 SCT027 17/10 Q1006
EFUT - Utti (Fin-Afb), Finland
Etäisyys asemalta: Kaakko 180 km
Päivitetty: 03.07.2020 16:50
Melkein pilvistä  
Melkein pilvistä  
   Tuuli: Lounas 5.1 m/s
Tuuli: Lounas 5.1 m/s
Lämpötila: 19°C
Kastepiste: 9°C
Kosteus: 52%
Ilmanpaine: 1007 hPa
Pilvisyys: Melkein pilvistä
Näkyvyys: Enemmän kuin 10 km
Pilvitiedot: Melkein pilvistä 1250 m
EFUT 031350Z AUTO 22010KT 190V250 9999 BKN041 19/09 Q1007
EFVA - Vaasa, Finland
Etäisyys asemalta: Luode 180 km
Päivitetty: 03.07.2020 16:50
Melkein pilvistä  
Melkein pilvistä  
   Tuuli: Lounas 7.2 m/s
Tuuli: Lounas 7.2 m/s
Lämpötila: 14°C
Kastepiste: 6°C
Kosteus: 59%
Ilmanpaine: 1004 hPa
Pilvisyys: Melkein pilvistä
Näkyvyys: Enemmän kuin 10 km
Pilvitiedot: Melkein pilvistä 1067 m
EFVA 031350Z AUTO 23014KT 9999 BKN035 14/06 Q1004
EFHK - Helsinki/Vantaa, Finland
Etäisyys asemalta: Etelä 191 km
Päivitetty: 03.07.2020 16:50
Vähäistä pilvisyyttä  
Vähäistä pilvisyyttä  
   Tuuli: Etelälounas 8.2 m/s
Tuuli: Etelälounas 8.2 m/s
Lämpötila: 20°C
Kastepiste: 10°C
Kosteus: 53%
Ilmanpaine: 1008 hPa
Pilvisyys: Vähäistä pilvisyyttä
Näkyvyys: Enemmän kuin 10 km
Pilvitiedot: Vähäistä pilvisyyttä 1189 m
EFHK 031350Z 21016KT 9999 FEW039 20/10 Q1008 NOSIG

Alkuperäinen skripti  Saratoga-weather.org Sovitettu myös templatelle  Weerstation Leuven

Laitteet joita käytämme:

Sääasema
Davis VP2

Sääasemaohjelma
Cumulus

Sääaseman palvelin
HP ProBook 6460b

Palveluntarjoaja
Radicenter

Davis VP2

Cumulus

HP ProBook 6460b

Radicenter




Flag Counter Cumulus Top Weather Sites